Time;durP1;ratioP1;P1;durP2;ratioP2;P2;SDS_P1;SDS_P2;PMS_P1;PMS_P2;Temp;Humidity;BMP_temperature;BMP_pressure;BME280_temperature;BME280_humidity;BME280_pressure;Samples;Min_cycle;Max_cycle;Signal;HPM_P1;HPM_P2
2021/06/09 00:01:57;;;;;;;5.40;3.20;;;16.40;99.90;;;;;;5096732;28;20461;-77
2021/06/09 00:04:23;;;;;;;4.65;3.60;;;16.40;99.90;;;;;;5079022;28;20020;-77
2021/06/09 00:06:48;;;;;;;4.72;3.20;;;16.30;99.90;;;;;;5078881;28;20500;-77
2021/06/09 00:09:14;;;;;;;5.45;3.58;;;16.20;99.90;;;;;;5096810;28;20136;-77
2021/06/09 00:11:41;;;;;;;5.32;2.83;;;16.20;99.90;;;;;;5097689;28;20105;-78
2021/06/09 00:14:07;;;;;;;4.15;3.38;;;16.10;99.90;;;;;;5096415;28;20039;-77
2021/06/09 00:16:35;;;;;;;7.65;3.72;;;16.10;99.90;;;;;;5096604;28;20028;-77
2021/06/09 00:19:01;;;;;;;6.72;3.28;;;16.00;99.90;;;;;;5078855;28;20028;-79
2021/06/09 00:21:26;;;;;;;6.60;2.90;;;16.00;99.90;;;;;;5078822;28;20028;-77
2021/06/09 00:23:52;;;;;;;3.78;2.88;;;15.90;99.90;;;;;;5096237;28;20108;-78
2021/06/09 00:26:20;;;;;;;4.57;2.90;;;15.90;99.90;;;;;;5096958;28;20027;-77
2021/06/09 00:28:46;;;;;;;4.57;3.57;;;15.80;99.90;;;;;;5078572;28;20073;-78
2021/06/09 00:31:12;;;;;;;5.80;2.80;;;15.80;99.90;;;;;;5077923;28;20274;-78
2021/06/09 00:33:38;;;;;;;4.50;2.55;;;15.70;99.90;;;;;;5097431;28;20016;-77
2021/06/09 00:36:04;;;;;;;5.13;3.72;;;15.70;99.90;;;;;;5096380;28;20028;-77
2021/06/09 00:38:30;;;;;;;5.25;3.05;;;15.70;99.90;;;;;;5096883;28;20469;-78
2021/06/09 00:40:57;;;;;;;6.35;3.05;;;15.60;99.90;;;;;;5096110;28;20023;-79
2021/06/09 00:43:27;;;;;;;10.15;3.95;;;15.60;99.90;;;;;;5097665;28;20031;-76
2021/06/09 00:45:55;;;;;;;6.50;3.60;;;15.50;99.90;;;;;;5096181;28;20134;-77
2021/06/09 00:48:25;;;;;;;5.38;3.72;;;15.50;99.90;;;;;;5078216;28;20020;-77
2021/06/09 00:50:53;;;;;;;6.75;4.00;;;15.50;99.90;;;;;;5078704;28;20505;-78
2021/06/09 00:53:28;;;;;;;7.93;4.20;;;15.40;99.90;;;;;;5078329;28;20108;-77
2021/06/09 00:56:03;;;;;;;7.55;3.88;;;15.40;99.90;;;;;;5096545;28;20031;-77
2021/06/09 00:58:29;;;;;;;6.28;3.72;;;15.40;99.90;;;;;;5095956;28;20028;-76
2021/06/09 01:00:55;;;;;;;11.65;4.07;;;15.40;99.90;;;;;;5095436;28;20025;-76
2021/06/09 01:03:21;;;;;;;7.60;4.25;;;15.40;99.90;;;;;;5095624;28;20120;-77
2021/06/09 01:05:47;;;;;;;8.15;4.25;;;15.40;99.90;;;;;;5080740;28;20449;-78
2021/06/09 01:08:16;;;;;;;9.07;4.72;;;15.30;99.90;;;;;;5098133;28;20469;-78
2021/06/09 01:10:42;;;;;;;6.18;4.00;;;15.30;99.90;;;;;;5098356;28;20077;-77
2021/06/09 01:13:08;;;;;;;6.28;3.72;;;16.70;99.90;;;;;;5098717;28;20024;-78
2021/06/09 01:15:34;;;;;;;6.72;4.88;;;15.20;99.90;;;;;;5081485;28;20077;-78
2021/06/09 01:18:00;;;;;;;7.55;4.13;;;15.20;99.90;;;;;;5098122;28;20039;-77
2021/06/09 01:20:26;;;;;;;8.00;4.70;;;15.20;99.90;;;;;;5079544;28;20048;-77
2021/06/09 01:22:52;;;;;;;10.70;4.78;;;15.10;99.90;;;;;;5098245;28;20049;-78
2021/06/09 01:25:22;;;;;;;11.00;4.85;;;15.10;99.90;;;;;;5080300;28;20073;-80
2021/06/09 01:27:49;;;;;;;9.18;4.68;;;15.10;99.90;;;;;;5099391;28;20016;-77
2021/06/09 01:30:15;;;;;;;7.03;4.00;;;15.10;99.90;;;;;;5097016;28;20445;-77
2021/06/09 01:32:41;;;;;;;8.10;4.57;;;15.00;99.90;;;;;;5098065;28;20036;-78
2021/06/09 01:35:08;;;;;;;9.10;4.95;;;15.00;99.90;;;;;;5097354;28;20024;-77
2021/06/09 01:37:34;;;;;;;5.70;4.15;;;15.00;99.90;;;;;;5099001;28;20032;-77
2021/06/09 01:40:00;;;;;;;8.35;4.72;;;15.00;99.90;;;;;;5078523;28;20035;-79
2021/06/09 01:42:29;;;;;;;5.93;4.05;;;14.90;99.90;;;;;;5097393;28;20426;-78
2021/06/09 01:44:55;;;;;;;;;;;14.90;99.90;;;;;;5079909;28;20066;-78
2021/06/09 01:47:21;;;;;;;6.07;4.20;;;14.90;99.90;;;;;;5097407;28;19904;-78
2021/06/09 01:49:47;;;;;;;9.13;4.55;;;14.90;99.90;;;;;;5079076;28;20028;-79
2021/06/09 01:52:13;;;;;;;6.63;4.72;;;14.80;99.90;;;;;;5077182;28;20016;-78
2021/06/09 01:54:40;;;;;;;7.18;4.00;;;14.80;99.90;;;;;;5094450;28;20451;-77
2021/06/09 01:57:07;;;;;;;6.45;4.63;;;14.80;99.90;;;;;;5093752;28;20028;-77
2021/06/09 01:59:33;;;;;;;7.63;4.40;;;14.80;99.90;;;;;;5093719;28;20031;-77
2021/06/09 02:02:00;;;;;;;7.30;3.95;;;14.80;99.90;;;;;;5093757;28;20032;-78
2021/06/09 02:04:26;;;;;;;5.00;3.42;;;14.80;99.90;;;;;;5096920;28;20472;-78
2021/06/09 02:06:53;;;;;;;5.47;4.00;;;14.80;99.90;;;;;;5096048;28;20013;-78
2021/06/09 02:09:19;;;;;;;8.32;4.30;;;14.70;99.90;;;;;;5095591;28;20116;-78
2021/06/09 02:11:46;;;;;;;7.65;4.78;;;14.70;99.90;;;;;;5096788;28;20028;-78
2021/06/09 02:14:13;;;;;;;9.85;3.83;;;14.70;99.90;;;;;;5096222;28;20027;-78
2021/06/09 02:16:40;;;;;;;7.47;4.45;;;14.70;99.90;;;;;;5096176;28;20028;-77
2021/06/09 02:19:10;;;;;;;7.55;3.95;;;14.70;99.90;;;;;;5097980;28;20044;-80
2021/06/09 02:21:42;;;;;;;7.20;4.35;;;14.60;99.90;;;;;;5097187;28;20020;-79
2021/06/09 02:24:09;;;;;;;7.70;4.65;;;14.60;99.90;;;;;;5096060;28;20441;-77
2021/06/09 02:26:36;;;;;;;9.32;5.15;;;14.60;99.90;;;;;;5096281;28;20020;-78
2021/06/09 02:29:04;;;;;;;8.48;4.50;;;14.60;99.90;;;;;;5095656;28;20032;-78
2021/06/09 02:31:30;;;;;;;7.25;4.40;;;14.50;99.90;;;;;;5078099;28;20028;-78
2021/06/09 02:33:56;;;;;;;7.85;5.00;;;14.50;99.90;;;;;;5096969;28;20380;-79
2021/06/09 02:36:23;;;;;;;8.48;4.57;;;14.50;99.90;;;;;;5096986;28;20020;-80
2021/06/09 02:38:49;;;;;;;6.10;4.32;;;14.40;99.90;;;;;;5078737;28;20020;-79
2021/06/09 02:41:16;;;;;;;7.53;4.38;;;14.50;99.90;;;;;;5096365;28;20024;-78
2021/06/09 02:43:42;;;;;;;8.63;4.65;;;14.50;99.90;;;;;;5096593;28;20019;-77
2021/06/09 02:46:16;;;;;;;7.93;4.55;;;14.50;99.90;;;;;;5096812;28;20016;-78
2021/06/09 02:48:46;;;;;;;8.60;5.10;;;14.50;99.90;;;;;;5079578;28;20046;-80
2021/06/09 02:51:17;;;;;;;7.90;5.03;;;14.50;99.90;;;;;;5081350;28;20111;-78
2021/06/09 02:54:09;;;;;;;7.75;4.90;;;14.40;99.90;;;;;;5098022;28;20385;-78
2021/06/09 02:56:38;;;;;;;8.07;4.78;;;14.40;99.90;;;;;;5100064;28;20024;-78
2021/06/09 02:59:28;;;;;;;6.97;4.60;;;14.40;99.90;;;;;;5084431;28;20052;-78
2021/06/09 03:02:16;;;;;;;8.38;4.50;;;14.40;99.90;;;;;;5100263;28;20028;-78
2021/06/09 03:05:15;;;;;;;9.30;4.88;;;14.40;99.90;;;;;;5101211;28;20028;-78
2021/06/09 03:08:03;;;;;;;8.60;4.55;;;14.40;99.90;;;;;;5100015;28;20024;-79
2021/06/09 03:10:36;;;;;;;8.82;4.90;;;14.40;99.90;;;;;;5074471;28;20035;-78
2021/06/09 03:13:09;;;;;;;7.55;4.53;;;14.30;99.90;;;;;;5099921;28;20538;-77
2021/06/09 03:15:49;;;;;;;7.50;4.30;;;14.30;99.90;;;;;;5082469;28;20024;-77
2021/06/09 03:18:18;;;;;;;5.93;3.97;;;14.30;99.90;;;;;;5082301;28;20032;-79
2021/06/09 03:21:05;;;;;;;5.93;4.07;;;14.30;99.90;;;;;;5080778;28;20479;-78
2021/06/09 03:23:43;;;;;;;6.60;3.65;;;14.30;99.90;;;;;;5081256;28;20082;-77
2021/06/09 03:26:30;;;;;;;8.63;4.22;;;14.30;99.90;;;;;;5099447;28;20079;-79
2021/06/09 03:29:20;;;;;;;7.20;4.70;;;14.30;99.90;;;;;;5099754;28;20028;-79
2021/06/09 03:31:52;;;;;;;6.47;3.65;;;14.30;99.90;;;;;;5101040;28;20020;-79
2021/06/09 03:34:32;;;;;;;5.15;3.20;;;14.30;99.90;;;;;;5081167;28;20077;-78
2021/06/09 03:37:00;;;;;;;6.75;4.35;;;14.30;99.90;;;;;;5100065;28;20084;-77
2021/06/09 03:39:28;;;;;;;5.50;3.47;;;14.30;99.90;;;;;;5081422;28;20024;-79
2021/06/09 03:41:57;;;;;;;6.65;3.92;;;14.30;99.90;;;;;;5079921;28;20047;-77
2021/06/09 03:44:29;;;;;;;6.18;4.07;;;14.30;99.90;;;;;;5097637;28;20023;-77
2021/06/09 03:46:56;;;;;;;7.05;4.15;;;14.30;99.90;;;;;;5098238;28;20031;-80
2021/06/09 03:49:23;;;;;;;5.45;4.15;;;14.20;99.90;;;;;;5079068;28;20035;-78
2021/06/09 03:51:50;;;;;;;6.07;3.72;;;14.20;99.90;;;;;;5079470;28;20024;-78
2021/06/09 03:54:16;;;;;;;8.63;4.35;;;14.30;99.90;;;;;;5096958;28;20024;-78
2021/06/09 03:56:46;;;;;;;8.27;4.28;;;14.30;99.90;;;;;;5078702;28;20448;-77
2021/06/09 03:59:13;;;;;;;9.25;4.75;;;14.30;99.90;;;;;;5080466;28;20032;-77
2021/06/09 04:01:40;;;;;;;7.25;4.20;;;14.30;99.90;;;;;;5097608;28;20461;-78
2021/06/09 04:04:08;;;;;;;6.07;3.75;;;14.40;99.90;;;;;;5096202;28;20024;-77
2021/06/09 04:06:38;;;;;;;7.15;3.83;;;14.40;99.90;;;;;;5097373;28;20027;-77
2021/06/09 04:09:06;;;;;;;5.70;3.75;;;14.50;99.90;;;;;;5098322;28;20020;-77
2021/06/09 04:11:33;;;;;;;8.40;4.07;;;14.50;99.90;;;;;;5081077;28;20048;-79
2021/06/09 04:13:59;;;;;;;7.57;4.93;;;14.60;99.90;;;;;;5097895;28;20024;-78
2021/06/09 04:16:28;;;;;;;8.38;4.47;;;14.70;99.90;;;;;;5096144;28;20028;-76
2021/06/09 04:18:57;;;;;;;6.90;4.20;;;14.70;99.90;;;;;;5078602;28;20024;-78
2021/06/09 04:21:25;;;;;;;9.55;4.97;;;14.80;99.90;;;;;;5078334;28;20082;-76
2021/06/09 04:23:51;;;;;;;5.65;3.95;;;14.90;99.90;;;;;;5097686;28;20020;-77
2021/06/09 04:26:18;;;;;;;6.80;4.30;;;15.10;99.90;;;;;;5098856;28;20043;-79
2021/06/09 04:28:45;;;;;;;5.40;3.60;;;15.20;99.90;;;;;;5098842;28;20342;-77
2021/06/09 04:31:13;;;;;;;7.25;4.30;;;15.30;99.90;;;;;;5097830;28;20027;-77
2021/06/09 04:33:39;;;;;;;5.78;3.60;;;15.40;99.90;;;;;;5097611;28;20657;-77
2021/06/09 04:36:10;;;;;;;5.70;3.53;;;15.60;99.90;;;;;;5078836;28;20062;-79
2021/06/09 04:38:37;;;;;;;5.40;3.53;;;15.70;99.90;;;;;;5097206;28;20017;-79
2021/06/09 04:41:02;;;;;;;5.65;3.17;;;15.90;99.90;;;;;;5097127;28;20072;-78
2021/06/09 04:43:28;;;;;;;7.43;4.05;;;16.00;99.90;;;;;;5096765;28;20052;-77
2021/06/09 04:45:54;;;;;;;5.72;3.63;;;16.10;99.90;;;;;;5096777;28;20048;-79
2021/06/09 04:48:19;;;;;;;7.38;4.10;;;16.30;99.90;;;;;;5097864;28;20437;-78
2021/06/09 04:50:47;;;;;;;7.47;4.68;;;16.30;99.90;;;;;;5129780;22;20392;-77
2021/06/09 04:53:15;;;;;;;9.05;4.75;;;16.50;99.90;;;;;;5116917;28;20019;-76
2021/06/09 04:55:45;;;;;;;7.00;4.22;;;16.60;99.90;;;;;;5115437;28;20016;-77
2021/06/09 04:58:13;;;;;;;5.78;3.92;;;16.70;99.90;;;;;;5118653;28;20027;-77
2021/06/09 05:00:40;;;;;;;4.70;3.13;;;16.80;99.90;;;;;;5115254;28;20020;-77
2021/06/09 05:03:06;;;;;;;5.32;3.00;;;16.90;99.90;;;;;;5115329;28;20020;-77
2021/06/09 05:05:31;;;;;;;5.90;3.20;;;17.00;99.90;;;;;;5116837;28;20380;-80
2021/06/09 05:07:57;;;;;;;5.95;4.18;;;17.00;99.90;;;;;;5117463;28;20507;-80
2021/06/09 05:10:23;;;;;;;4.93;3.60;;;17.10;99.90;;;;;;5118629;28;20047;-81
2021/06/09 05:12:58;;;;;;;6.95;4.55;;;17.20;99.90;;;;;;5118776;28;20047;-80
2021/06/09 05:15:27;;;;;;;7.20;4.18;;;17.20;99.90;;;;;;5116202;28;20024;-77
2021/06/09 05:17:52;;;;;;;7.15;4.50;;;17.30;99.90;;;;;;5115073;28;20434;-77
2021/06/09 05:20:28;;;;;;;7.07;4.22;;;17.30;99.90;;;;;;5108025;28;20027;-79
2021/06/09 05:23:02;;;;;;;8.93;4.72;;;17.30;99.90;;;;;;5109377;28;20032;-78
2021/06/09 05:25:29;;;;;;;7.63;4.97;;;17.30;99.90;;;;;;5106401;28;20488;-75
2021/06/09 05:27:57;;;;;;;7.15;4.63;;;17.40;99.90;;;;;;5111269;28;20016;-76
2021/06/09 05:30:25;;;;;;;10.37;5.33;;;17.40;99.90;;;;;;5094001;28;20039;-78
2021/06/09 05:32:53;;;;;;;7.72;5.22;;;17.50;99.90;;;;;;5093550;28;20055;-77
2021/06/09 05:35:21;;;;;;;9.27;5.45;;;17.70;99.90;;;;;;5094204;28;20028;-80
2021/06/09 05:37:47;;;;;;;8.43;5.47;;;17.70;99.90;;;;;;5096404;28;20478;-76
2021/06/09 05:40:16;;;;;;;7.85;5.13;;;17.80;99.90;;;;;;5114207;28;20062;-75
2021/06/09 05:42:42;;;;;;;10.00;6.32;;;17.90;99.90;;;;;;5113248;28;20016;-74
2021/06/09 05:45:08;;;;;;;10.40;5.78;;;18.10;99.90;;;;;;5114502;28;20461;-76
2021/06/09 05:47:46;;;;;;;8.40;5.60;;;18.10;99.90;;;;;;5113593;28;20063;-74
2021/06/09 05:50:16;;;;;;;10.02;5.40;;;18.30;99.90;;;;;;5112467;28;20104;-77
2021/06/09 05:52:41;;;;;;;10.10;5.65;;;18.50;99.90;;;;;;5101418;28;20028;-78
2021/06/09 05:55:20;;;;;;;9.02;5.63;;;18.80;99.90;;;;;;5098282;28;20425;-74
2021/06/09 05:57:46;;;;;;;8.25;5.30;;;18.80;99.90;;;;;;5094066;28;20028;-79
2021/06/09 06:00:14;;;;;;;9.10;5.70;;;18.90;99.90;;;;;;5125796;22;20400;-74
2021/06/09 06:02:40;;;;;;;9.98;5.65;;;19.00;99.90;;;;;;5134515;28;20105;-78
2021/06/09 06:05:07;;;;;;;9.52;6.55;;;19.10;99.90;;;;;;5116349;28;20110;-76
2021/06/09 06:07:33;;;;;;;8.13;5.72;;;19.20;99.90;;;;;;5114322;28;20110;-74
2021/06/09 06:10:00;;;;;;;8.48;6.13;;;19.30;99.90;;;;;;5114986;28;20038;-75
2021/06/09 06:12:26;;;;;;;10.60;6.00;;;19.30;99.90;;;;;;5096362;28;20024;-74
2021/06/09 06:14:52;;;;;;;11.88;6.30;;;19.40;99.90;;;;;;5113989;28;20024;-76
2021/06/09 06:17:18;;;;;;;10.95;6.35;;;19.30;99.90;;;;;;5096123;28;20024;-79
2021/06/09 06:19:48;;;;;;;11.35;6.68;;;19.50;99.90;;;;;;5096686;28;20027;-79
2021/06/09 06:22:13;;;;;;;10.00;5.75;;;19.50;99.90;;;;;;5095837;28;20016;-76
2021/06/09 06:24:44;;;;;;;12.77;5.97;;;19.60;99.90;;;;;;5114177;28;20384;-76
2021/06/09 06:27:12;;;;;;;8.60;5.78;;;19.70;99.90;;;;;;5095868;28;20460;-78
2021/06/09 06:29:38;;;;;;;7.47;4.93;;;19.80;99.90;;;;;;5118356;28;20011;-76
2021/06/09 06:32:09;;;;;;;13.13;6.65;;;19.80;99.90;;;;;;5119166;28;20116;-76
2021/06/09 06:34:39;;;;;;;12.80;6.80;;;19.90;99.90;;;;;;5118138;28;20066;-75
2021/06/09 06:37:06;;;;;;;12.65;6.68;;;19.90;99.90;;;;;;5117737;28;20100;-75
2021/06/09 06:39:32;;;;;;;11.02;6.60;;;19.90;99.90;;;;;;5118966;28;20035;-79
2021/06/09 06:41:57;;;;;;;14.85;6.68;;;19.90;99.90;;;;;;5117963;28;20016;-76
2021/06/09 06:44:23;;;;;;;12.63;7.63;;;20.00;99.90;;;;;;5118073;28;20016;-75
2021/06/09 06:46:49;;;;;;;10.98;7.00;;;20.10;99.90;;;;;;5117295;28;20022;-76
2021/06/09 06:49:19;;;;;;;13.48;6.68;;;20.30;99.90;;;;;;5118829;28;20039;-78
2021/06/09 06:51:46;;;;;;;14.50;7.43;;;20.40;99.90;;;;;;5099910;28;20510;-78
2021/06/09 06:54:13;;;;;;;12.02;7.60;;;20.60;99.90;;;;;;5118757;28;20383;-78
2021/06/09 06:56:39;;;;;;;15.68;7.80;;;20.80;99.90;;;;;;5098902;28;20020;-74
2021/06/09 06:59:05;;;;;;;13.90;7.70;;;21.00;99.90;;;;;;5117204;28;20127;-76
2021/06/09 07:01:35;;;;;;;15.75;7.95;;;21.20;99.90;;;;;;5117454;28;20024;-75
2021/06/09 07:04:03;;;;;;;13.23;6.82;;;21.30;99.90;;;;;;5118052;28;20023;-75
2021/06/09 07:06:28;;;;;;;10.20;6.60;;;21.60;99.90;;;;;;5117177;28;20019;-78
2021/06/09 07:08:55;;;;;;;15.88;8.48;;;21.90;99.90;;;;;;5117050;28;20480;-75
2021/06/09 07:11:22;;;;;;;19.67;8.10;;;22.20;99.90;;;;;;5098894;28;20020;-78
2021/06/09 07:13:50;;;;;;;12.65;8.27;;;22.30;99.90;;;;;;5117036;28;20035;-77
2021/06/09 07:16:16;;;;;;;11.48;7.05;;;22.40;99.90;;;;;;5117310;28;20388;-78
2021/06/09 07:18:46;;;;;;;11.80;7.60;;;22.50;99.90;;;;;;5099486;28;20087;-75
2021/06/09 07:21:17;;;;;;;11.55;6.20;;;22.60;99.90;;;;;;5117705;28;20024;-78
2021/06/09 07:23:43;;;;;;;12.52;6.13;;;22.60;99.90;;;;;;5117660;28;20023;-78
2021/06/09 07:26:10;;;;;;;12.63;6.55;;;22.60;99.90;;;;;;5117195;28;20027;-74
2021/06/09 07:28:43;;;;;;;8.20;4.88;;;22.60;99.90;;;;;;5116721;28;20072;-78
2021/06/09 07:31:09;;;;;;;14.27;6.97;;;22.80;99.90;;;;;;5118749;28;20108;-77
2021/06/09 07:33:35;;;;;;;10.35;6.00;;;22.80;99.90;;;;;;5117676;28;20080;-78
2021/06/09 07:36:06;;;;;;;8.05;5.47;;;22.90;99.90;;;;;;5098611;28;20490;-78
2021/06/09 07:38:38;;;;;;;8.38;4.82;;;23.00;99.90;;;;;;5117902;28;20380;-78
2021/06/09 07:41:04;;;;;;;8.30;5.25;;;23.10;98.80;;;;;;5116782;28;20031;-76
2021/06/09 07:46:03;;;;;;;7.88;5.03;;;23.30;96.70;;;;;;5093301;28;20048;-78
2021/06/09 07:48:31;;;;;;;9.43;4.53;;;23.30;95.70;;;;;;5078041;28;20032;-78
2021/06/09 07:51:09;;;;;;;8.18;4.40;;;23.30;94.60;;;;;;5079048;28;20013;-75
2021/06/09 07:53:36;;;;;;;10.85;6.20;;;23.40;92.80;;;;;;5095933;28;20107;-75
2021/06/09 07:56:03;;;;;;;7.10;4.53;;;23.30;91.70;;;;;;5094035;28;20031;-74
2021/06/09 07:58:32;;;;;;;10.20;5.05;;;23.20;93.00;;;;;;5095543;28;20081;-76
2021/06/09 08:01:00;;;;;;;8.38;4.82;;;23.00;92.90;;;;;;5093883;28;20434;-78
2021/06/09 08:03:28;;;;;;;9.30;4.55;;;22.90;93.40;;;;;;5077797;28;20361;-76
2021/06/09 08:05:56;;;;;;;8.77;5.10;;;22.90;95.50;;;;;;5084407;28;20020;-77
2021/06/09 08:08:22;;;;;;;10.65;5.07;;;23.00;93.40;;;;;;5077610;28;20048;-78
2021/06/09 08:10:48;;;;;;;8.05;4.63;;;23.20;93.50;;;;;;5076362;28;20023;-76
2021/06/09 08:13:13;;;;;;;6.65;4.18;;;23.40;93.00;;;;;;5077181;28;20053;-77
2021/06/09 08:15:40;;;;;;;8.23;4.40;;;23.60;91.60;;;;;;5096570;28;20020;-76
2021/06/09 08:18:07;;;;;;;7.82;4.30;;;23.90;91.40;;;;;;5095276;28;20039;-76
2021/06/09 08:20:35;;;;;;;9.05;4.28;;;24.00;89.20;;;;;;5095325;28;20028;-75
2021/06/09 08:23:01;;;;;;;5.95;2.65;;;24.00;90.00;;;;;;5095517;28;20024;-78
2021/06/09 08:25:27;;;;;;;6.07;3.40;;;24.20;90.30;;;;;;5095984;28;20024;-76
2021/06/09 08:27:53;;;;;;;6.63;3.45;;;24.40;89.00;;;;;;5096666;28;20507;-78
2021/06/09 08:30:21;;;;;;;6.60;3.97;;;24.20;81.90;;;;;;5095852;28;20120;-75
2021/06/09 08:32:47;;;;;;;6.72;3.70;;;24.10;80.20;;;;;;5096183;28;20029;-75
2021/06/09 08:35:13;;;;;;;5.90;3.15;;;24.20;82.10;;;;;;5094971;28;20032;-75
2021/06/09 08:37:39;;;;;;;5.28;2.70;;;24.30;83.10;;;;;;5077340;28;20035;-77
2021/06/09 08:40:07;;;;;;;12.43;3.47;;;24.50;80.90;;;;;;5096419;28;20431;-79
2021/06/09 08:42:35;;;;;;;6.97;2.97;;;24.70;74.50;;;;;;5095389;28;20499;-76
2021/06/09 08:45:07;;;;;;;;;;;24.70;73.30;;;;;;5077973;28;20032;-79
2021/06/09 08:47:35;;;;;;;8.68;4.82;;;24.80;78.90;;;;;;5077349;28;19904;-77
2021/06/09 08:50:04;;;;;;;8.43;4.45;;;25.10;72.10;;;;;;5095415;28;20035;-77
2021/06/09 08:52:30;;;;;;;4.75;2.88;;;25.00;73.30;;;;;;5095333;28;20063;-78
2021/06/09 08:54:56;;;;;;;9.60;4.00;;;25.10;75.40;;;;;;5077825;28;20175;-75
2021/06/09 08:57:22;;;;;;;8.30;5.20;;;25.10;75.20;;;;;;5095170;28;20045;-75
2021/06/09 08:59:47;;;;;;;8.07;4.07;;;25.10;74.50;;;;;;5076295;28;20016;-76
2021/06/09 09:02:13;;;;;;;9.27;4.75;;;25.30;75.90;;;;;;5094520;28;20028;-76
2021/06/09 09:04:41;;;;;;;9.23;3.05;;;25.00;68.30;;;;;;5095178;28;20017;-76
2021/06/09 09:07:08;;;;;;;8.30;4.32;;;25.10;71.50;;;;;;5094710;28;20025;-76
2021/06/09 09:09:34;;;;;;;8.98;4.93;;;25.20;70.00;;;;;;5095908;28;20031;-78
2021/06/09 09:12:00;;;;;;;6.55;3.17;;;25.20;67.50;;;;;;5076170;28;20565;-75
2021/06/09 09:14:26;;;;;;;5.63;2.90;;;25.20;69.10;;;;;;5095445;28;20432;-78
2021/06/09 09:17:12;;;;;;;7.28;2.70;;;25.40;65.50;;;;;;5076200;28;20056;-75
2021/06/09 09:19:43;;;;;;;3.58;2.28;;;25.50;65.60;;;;;;5094076;28;20031;-76
2021/06/09 09:22:11;;;;;;;2.97;2.15;;;25.30;66.80;;;;;;5094253;28;20388;-76
2021/06/09 09:24:48;;;;;;;2.42;2.05;;;25.70;67.20;;;;;;5076652;28;20020;-76
2021/06/09 09:27:27;;;;;;;9.38;2.50;;;25.90;69.60;;;;;;5094101;28;20031;-77
2021/06/09 09:30:13;;;;;;;5.32;3.10;;;26.10;71.00;;;;;;5076089;28;20073;-78
2021/06/09 09:33:00;;;;;;;5.85;3.33;;;26.30;67.60;;;;;;5076539;28;20065;-75
2021/06/09 09:35:32;;;;;;;3.83;2.85;;;26.10;66.60;;;;;;5108697;22;20131;-75
2021/06/09 09:38:28;;;;;;;5.13;2.92;;;26.30;69.50;;;;;;5076781;28;20016;-76
2021/06/09 09:41:11;;;;;;;9.75;5.10;;;26.50;68.60;;;;;;5075460;28;20034;-76
2021/06/09 09:43:46;;;;;;;7.97;3.92;;;26.70;67.20;;;;;;5095667;28;20013;-77
2021/06/09 09:46:17;;;;;;;6.97;4.50;;;26.80;67.50;;;;;;5094854;28;20074;-76
2021/06/09 09:49:06;;;;;;;15.13;7.53;;;26.90;68.70;;;;;;5095334;28;20028;-76
2021/06/09 09:51:33;;;;;;;;;;;26.80;65.60;;;;;;5095994;28;20023;-78
2021/06/09 09:54:03;;;;;;;10.27;6.47;;;26.60;66.70;;;;;;5078112;28;19904;-78
2021/06/09 09:56:32;;;;;;;7.85;5.63;;;26.70;67.50;;;;;;5076685;28;20024;-76
2021/06/09 09:59:02;;;;;;;;;;;26.80;64.40;;;;;;5076751;28;20028;-79
2021/06/09 10:01:29;;;;;;;10.90;6.00;;;26.70;65.80;;;;;;5077941;28;19903;-78
2021/06/09 10:03:59;;;;;;;10.63;6.53;;;26.60;66.60;;;;;;5075415;28;20020;-75
2021/06/09 10:06:45;;;;;;;8.27;5.47;;;26.30;65.90;;;;;;5075400;28;20028;-76
2021/06/09 10:09:13;;;;;;;11.27;6.53;;;26.20;70.00;;;;;;5076076;28;20024;-79
2021/06/09 10:11:47;;;;;;;10.18;6.78;;;26.20;66.40;;;;;;5094971;28;20095;-77
2021/06/09 10:14:17;;;;;;;13.30;7.40;;;26.40;66.40;;;;;;5094041;28;20020;-76
2021/06/09 10:16:43;;;;;;;11.38;8.35;;;26.40;65.60;;;;;;5095452;28;20024;-78
2021/06/09 10:19:11;;;;;;;9.98;6.55;;;26.20;61.30;;;;;;5095364;28;20026;-78
2021/06/09 10:22:04;;;;;;;9.93;6.05;;;27.40;67.50;;;;;;5096116;28;20466;-78
2021/06/09 10:24:30;;;;;;;9.90;6.35;;;26.50;65.60;;;;;;5076869;28;20036;-75
2021/06/09 10:27:06;;;;;;;11.70;5.88;;;26.70;61.60;;;;;;5121992;22;20519;-78
2021/06/09 10:29:33;;;;;;;8.50;5.47;;;27.00;63.30;;;;;;5114220;28;20473;-76
2021/06/09 10:32:02;;;;;;;8.60;4.47;;;27.60;63.50;;;;;;5113586;28;20481;-76
2021/06/09 10:34:30;;;;;;;7.25;5.82;;;27.60;60.10;;;;;;5112652;28;20059;-78
2021/06/09 10:37:00;;;;;;;9.88;6.18;;;27.50;56.90;;;;;;5129981;22;20049;-76
2021/06/09 10:41:56;;;;;;;4.35;3.35;;;27.70;59.70;;;;;;5092240;28;20153;-76
2021/06/09 10:44:25;;;;;;;4.43;3.45;;;28.00;61.40;;;;;;5076650;28;20024;-76
2021/06/09 10:46:54;;;;;;;9.77;5.32;;;28.20;54.20;;;;;;5094054;28;20058;-75
2021/06/09 10:49:21;;;;;;;7.47;4.00;;;28.10;53.60;;;;;;5118293;22;20108;-76
2021/06/09 10:51:49;;;;;;;7.72;3.53;;;27.90;55.10;;;;;;5112739;28;20016;-78
2021/06/09 10:54:15;;;;;;;8.25;4.13;;;28.00;54.90;;;;;;5114065;28;20020;-75
2021/06/09 10:56:47;;;;;;;5.05;3.78;;;27.90;53.90;;;;;;5112283;28;20020;-75
2021/06/09 10:59:15;;;;;;;6.18;4.05;;;27.80;52.70;;;;;;5112585;28;20035;-78
2021/06/09 11:01:43;;;;;;;3.92;3.38;;;27.80;54.10;;;;;;5113895;28;20024;-75
2021/06/09 11:04:09;;;;;;;9.40;4.70;;;27.60;54.20;;;;;;5112601;28;20384;-79
2021/06/09 11:06:56;;;;;;;7.95;5.20;;;27.90;55.50;;;;;;5112222;28;20106;-78
2021/06/09 11:09:28;;;;;;;8.90;4.95;;;28.10;53.20;;;;;;5114122;28;20036;-78
2021/06/09 11:12:12;;;;;;;7.40;5.28;;;28.20;55.30;;;;;;5114399;28;20480;-75
2021/06/09 11:15:07;;;;;;;5.43;4.13;;;28.20;52.80;;;;;;5114643;28;20104;-78
2021/06/09 11:17:52;;;;;;;8.93;5.60;;;28.00;57.30;;;;;;5110980;28;20038;-78
2021/06/09 11:20:22;;;;;;;8.25;5.68;;;27.70;53.70;;;;;;5116478;28;20026;-77
2021/06/09 11:23:05;;;;;;;8.15;5.78;;;28.00;53.90;;;;;;5115644;28;20540;-75
2021/06/09 11:25:57;;;;;;;8.95;5.70;;;28.00;52.20;;;;;;5115539;28;20507;-75
2021/06/09 11:28:37;;;;;;;7.10;4.82;;;27.90;52.20;;;;;;5115182;28;20031;-75
2021/06/09 11:31:05;;;;;;;5.68;4.75;;;28.30;53.90;;;;;;5117032;28;20020;-78
2021/06/09 11:33:36;;;;;;;;;;;28.40;52.60;;;;;;5117075;28;20081;-78
2021/06/09 11:36:27;;;;;;;7.85;4.47;;;28.40;54.40;;;;;;5116737;28;20320;-78
2021/06/09 11:39:04;;;;;;;10.23;5.35;;;28.20;55.80;;;;;;5116451;28;20020;-76
2021/06/09 11:41:41;;;;;;;8.53;5.13;;;28.00;55.80;;;;;;5117073;28;20460;-76
2021/06/09 11:44:29;;;;;;;9.63;6.50;;;27.80;56.50;;;;;;5117553;27;20258;-78
2021/06/09 11:47:25;;;;;;;6.37;5.07;;;27.70;52.70;;;;;;5131641;22;20142;-77
2021/06/09 11:49:52;;;;;;;7.65;4.38;;;27.60;54.40;;;;;;5138389;27;20019;-78
2021/06/09 11:52:19;;;;;;;10.60;6.47;;;27.40;54.70;;;;;;5147896;22;20047;-78
2021/06/09 11:54:46;;;;;;;11.48;7.70;;;27.30;54.90;;;;;;5117199;28;20520;-78
2021/06/09 11:57:21;;;;;;;10.73;7.00;;;27.20;54.80;;;;;;5115635;28;20019;-77
2021/06/09 11:59:50;;;;;;;13.02;8.20;;;27.50;53.60;;;;;;5115580;28;20035;-77
2021/06/09 12:02:17;;;;;;;12.82;6.78;;;27.50;51.90;;;;;;5115920;28;20020;-80
2021/06/09 12:04:48;;;;;;;10.80;7.35;;;27.50;54.50;;;;;;5114948;28;20023;-76
2021/06/09 12:07:34;;;;;;;7.90;4.82;;;27.40;53.70;;;;;;5115435;28;20106;-78
2021/06/09 12:10:02;;;;;;;7.13;5.80;;;27.60;56.40;;;;;;5115379;28;20028;-77
2021/06/09 12:12:30;;;;;;;10.57;5.38;;;28.00;56.20;;;;;;5115872;28;20030;-75
2021/06/09 12:14:57;;;;;;;5.53;4.00;;;28.70;55.00;;;;;;5114582;28;20012;-75
2021/06/09 12:17:31;;;;;;;7.50;6.15;;;28.90;53.10;;;;;;5116621;28;20111;-79
2021/06/09 12:20:01;;;;;;;7.15;5.40;;;28.80;51.60;;;;;;5116575;28;20030;-77
2021/06/09 12:22:31;;;;;;;5.40;4.60;;;28.90;52.10;;;;;;5117369;28;20491;-78
2021/06/09 12:25:05;;;;;;;8.82;5.43;;;29.30;53.70;;;;;;5116044;28;20031;-76
2021/06/09 12:27:38;;;;;;;11.23;8.20;;;29.30;53.20;;;;;;5114341;28;20068;-77
2021/06/09 12:30:09;;;;;;;10.60;7.38;;;28.80;49.50;;;;;;5116700;28;20015;-78
2021/06/09 12:32:36;;;;;;;13.35;9.05;;;28.20;52.40;;;;;;5115856;28;20032;-77
2021/06/09 12:35:13;;;;;;;8.77;5.65;;;28.00;51.70;;;;;;5142306;22;20050;-78
2021/06/09 12:37:46;;;;;;;10.27;7.80;;;27.70;55.90;;;;;;5115933;28;20024;-74
2021/06/09 12:40:21;;;;;;;9.13;4.85;;;27.40;53.40;;;;;;5097147;28;20031;-76
2021/06/09 12:42:50;;;;;;;8.40;4.55;;;27.20;58.20;;;;;;5097935;28;20024;-75
2021/06/09 12:45:17;;;;;;;6.35;4.20;;;27.80;58.40;;;;;;5097791;28;20156;-76
2021/06/09 12:47:44;;;;;;;6.97;4.40;;;28.30;55.70;;;;;;5097073;28;20012;-77
2021/06/09 12:50:24;;;;;;;7.63;4.25;;;28.50;54.90;;;;;;5116090;28;20029;-78
2021/06/09 12:52:51;;;;;;;7.70;5.57;;;28.50;52.40;;;;;;5116135;28;20038;-78
2021/06/09 12:55:23;;;;;;;7.95;5.55;;;28.80;48.70;;;;;;5115923;28;20069;-77
2021/06/09 12:57:50;;;;;;;4.00;3.42;;;29.20;50.00;;;;;;5115716;28;20036;-76
2021/06/09 13:00:24;;;;;;;5.75;4.07;;;29.60;51.00;;;;;;5097869;28;20027;-76
2021/06/09 13:02:50;;;;;;;6.68;4.38;;;30.50;49.20;;;;;;5115958;28;20093;-77
2021/06/09 13:05:18;;;;;;;7.45;4.35;;;30.80;47.80;;;;;;5128925;22;20047;-75